Time;durP1;ratioP1;P1;durP2;ratioP2;P2;SDS_P1;SDS_P2;PMS_P1;PMS_P2;Temp;Humidity;BMP_temperature;BMP_pressure;BME280_temperature;BME280_humidity;BME280_pressure;Samples;Min_cycle;Max_cycle;Signal;HPM_P1;HPM_P2
2022/06/26 00:01:20;;;;;;;30.50;17.50;;;18.40;99.90;;;;;;5092836;28;20170;-78
2022/06/26 00:03:46;;;;;;;39.30;18.77;;;18.40;99.90;;;;;;5086334;28;20476;-77
2022/06/26 00:06:12;;;;;;;30.57;18.00;;;18.40;99.90;;;;;;5087595;28;20105;-78
2022/06/26 00:08:38;;;;;;;31.02;18.40;;;18.40;99.90;;;;;;5087748;28;20088;-79
2022/06/26 00:11:03;;;;;;;32.57;18.60;;;18.40;99.90;;;;;;5089609;28;20044;-79
2022/06/26 00:13:29;;;;;;;31.53;17.87;;;18.40;99.90;;;;;;5091099;28;20053;-79
2022/06/26 00:15:55;;;;;;;33.13;17.98;;;18.40;99.90;;;;;;5080414;28;20040;-78
2022/06/26 00:18:21;;;;;;;32.47;18.50;;;18.40;99.90;;;;;;5079866;28;20094;-80
2022/06/26 00:20:47;;;;;;;34.03;18.13;;;18.40;99.90;;;;;;5084101;28;20135;-79
2022/06/26 00:23:13;;;;;;;34.43;19.47;;;18.50;99.90;;;;;;5079450;28;20080;-78
2022/06/26 00:25:38;;;;;;;34.20;19.77;;;18.40;99.90;;;;;;5080601;28;20053;-77
2022/06/26 00:28:04;;;;;;;34.37;18.53;;;18.40;99.90;;;;;;5085885;28;20094;-79
2022/06/26 00:30:30;;;;;;;37.97;20.43;;;18.40;99.90;;;;;;5080203;28;20052;-77
2022/06/26 00:32:55;;;;;;;36.67;19.57;;;18.40;99.90;;;;;;5066114;28;20091;-79
2022/06/26 00:35:21;;;;;;;33.30;19.27;;;18.50;99.90;;;;;;5090914;28;20056;-78
2022/06/26 00:37:48;;;;;;;34.80;19.63;;;18.50;99.90;;;;;;5089517;28;20040;-77
2022/06/26 00:40:14;;;;;;;37.50;19.38;;;18.50;99.90;;;;;;5084594;28;20052;-79
2022/06/26 00:42:40;;;;;;;32.60;18.40;;;18.50;99.90;;;;;;5083444;28;20032;-77
2022/06/26 00:45:08;;;;;;;36.90;19.17;;;18.50;99.90;;;;;;5088421;28;20181;-78
2022/06/26 00:47:33;;;;;;;35.40;19.55;;;18.50;99.90;;;;;;5075641;28;20052;-80
2022/06/26 00:49:59;;;;;;;34.43;18.70;;;18.50;99.90;;;;;;5076293;28;20044;-80
2022/06/26 00:52:27;;;;;;;35.20;19.90;;;18.40;99.90;;;;;;5061760;28;20480;-76
2022/06/26 00:54:54;;;;;;;34.78;21.17;;;18.50;99.90;;;;;;5072959;28;20055;-79
2022/06/26 00:57:20;;;;;;;;;;;18.40;99.90;;;;;;5076383;28;20080;-76
2022/06/26 00:59:47;;;;;;;36.50;20.55;;;18.40;99.90;;;;;;5073939;28;20234;-77
2022/06/26 01:02:12;;;;;;;36.92;20.55;;;18.60;99.90;;;;;;5077628;28;20040;-78
2022/06/26 01:04:38;;;;;;;33.73;19.97;;;18.60;99.90;;;;;;5094675;28;20052;-79
2022/06/26 01:07:05;;;;;;;35.40;20.07;;;18.70;99.90;;;;;;5082751;28;20036;-78
2022/06/26 01:09:31;;;;;;;35.95;19.58;;;18.70;99.90;;;;;;5081232;28;20044;-79
2022/06/26 01:11:57;;;;;;;39.77;22.97;;;18.70;99.90;;;;;;5079193;28;20129;-80
2022/06/26 01:14:23;;;;;;;42.30;20.27;;;18.70;99.90;;;;;;5080451;28;20366;-77
2022/06/26 01:16:49;;;;;;;39.13;22.45;;;18.70;99.90;;;;;;5082411;28;20048;-79
2022/06/26 01:19:17;;;;;;;42.85;21.83;;;18.70;99.90;;;;;;5062901;28;20140;-79
2022/06/26 01:21:43;;;;;;;41.97;23.20;;;18.60;99.90;;;;;;5080311;28;20396;-79
2022/06/26 01:24:09;;;;;;;47.40;22.03;;;18.60;99.90;;;;;;5077319;28;20143;-79
2022/06/26 01:26:36;;;;;;;46.97;22.60;;;18.60;99.90;;;;;;5085081;28;20230;-76
2022/06/26 01:29:03;;;;;;;48.10;23.10;;;18.60;99.90;;;;;;5080344;28;20094;-77
2022/06/26 01:31:28;;;;;;;;;;;18.60;99.90;;;;;;5078667;28;20097;-77
2022/06/26 01:33:54;;;;;;;46.13;21.50;;;18.60;99.90;;;;;;5085274;28;19924;-77
2022/06/26 01:36:20;;;;;;;41.23;21.60;;;18.60;99.90;;;;;;5081637;28;20048;-77
2022/06/26 01:38:46;;;;;;;46.10;22.20;;;18.60;99.90;;;;;;5088305;28;20040;-80
2022/06/26 01:41:12;;;;;;;38.90;22.30;;;18.60;99.90;;;;;;5072494;28;20106;-79
2022/06/26 01:43:38;;;;;;;41.87;22.07;;;18.70;99.90;;;;;;5081186;28;20279;-78
2022/06/26 01:46:05;;;;;;;43.35;22.73;;;18.70;99.90;;;;;;5079082;28;20075;-77
2022/06/26 01:48:33;;;;;;;52.20;23.35;;;18.70;99.90;;;;;;5084485;28;20085;-80
2022/06/26 01:51:00;;;;;;;48.22;24.20;;;18.70;99.90;;;;;;5089169;28;20102;-77
2022/06/26 01:53:27;;;;;;;52.17;24.85;;;18.60;99.90;;;;;;5085725;28;20107;-77
2022/06/26 01:55:53;;;;;;;43.90;24.85;;;18.60;99.90;;;;;;5075929;28;20144;-81
2022/06/26 01:58:19;;;;;;;51.35;24.45;;;18.50;99.90;;;;;;5075465;28;20100;-82
2022/06/26 02:00:46;;;;;;;54.30;25.67;;;18.50;99.90;;;;;;5075307;28;20080;-81
2022/06/26 02:03:13;;;;;;;48.97;24.75;;;18.40;99.90;;;;;;5060752;28;20064;-82
2022/06/26 02:05:38;;;;;;;47.70;23.85;;;18.40;99.90;;;;;;5077238;28;20048;-82
2022/06/26 02:08:04;;;;;;;49.93;24.40;;;18.40;99.90;;;;;;5075632;28;20143;-81
2022/06/26 02:16:20;;;;;;;51.47;24.58;;;18.20;99.90;;;;;;5077417;28;20056;-79
2022/06/26 02:18:49;;;;;;;50.72;24.85;;;18.20;99.90;;;;;;5077866;28;20044;-80
2022/06/26 02:21:17;;;;;;;51.60;24.00;;;18.10;99.90;;;;;;5075738;28;20107;-78
2022/06/26 02:23:45;;;;;;;53.10;24.80;;;18.00;99.90;;;;;;5077858;28;20063;-79
2022/06/26 02:26:11;;;;;;;55.42;24.70;;;18.00;99.90;;;;;;5061693;28;20052;-82
2022/06/26 02:28:38;;;;;;;46.67;23.47;;;17.90;99.90;;;;;;5077973;28;20041;-80
2022/06/26 02:31:05;;;;;;;47.25;20.88;;;17.90;99.90;;;;;;5075909;28;20048;-82
2022/06/26 02:33:32;;;;;;;;;;;17.80;99.90;;;;;;5077175;28;20049;-79
2022/06/26 02:35:59;;;;;;;37.90;18.92;;;17.80;99.90;;;;;;5076073;28;20096;-81
2022/06/26 02:38:25;;;;;;;;;;;17.80;99.90;;;;;;5078282;28;20053;-80
2022/06/26 02:40:51;;;;;;;36.85;17.05;;;17.80;99.90;;;;;;5079589;28;19920;-80
2022/06/26 02:43:23;;;;;;;36.40;16.38;;;17.70;99.90;;;;;;5088549;28;20052;-80
2022/06/26 02:45:49;;;;;;;34.72;16.85;;;17.70;99.90;;;;;;5088742;28;20090;-82
2022/06/26 02:48:15;;;;;;;30.80;16.10;;;17.70;99.90;;;;;;5082120;28;20419;-82
2022/06/26 02:50:41;;;;;;;35.43;16.00;;;17.60;99.90;;;;;;5084761;28;20243;-83
2022/06/26 02:53:07;;;;;;;39.27;16.27;;;17.60;99.90;;;;;;5081523;28;20066;-81
2022/06/26 02:55:33;;;;;;;33.60;15.30;;;17.60;99.90;;;;;;5078977;28;20047;-82
2022/06/26 02:57:59;;;;;;;30.93;14.83;;;17.40;99.90;;;;;;5062322;28;20123;-83
2022/06/26 03:00:25;;;;;;;26.77;14.67;;;17.40;99.90;;;;;;5075154;28;20147;-83
2022/06/26 03:02:51;;;;;;;33.43;15.53;;;17.40;99.90;;;;;;5063548;28;20064;-81
2022/06/26 03:05:17;;;;;;;34.78;16.55;;;17.40;99.90;;;;;;5075464;28;20770;-82
2022/06/26 03:07:43;;;;;;;36.03;16.50;;;17.30;99.90;;;;;;5078226;28;20055;-81
2022/06/26 03:10:09;;;;;;;28.42;15.07;;;17.20;99.90;;;;;;5075525;28;20052;-82
2022/06/26 03:12:43;;;;;;;34.90;16.23;;;17.20;99.90;;;;;;5212282;22;20125;-82
2022/06/26 03:15:09;;;;;;;29.63;16.08;;;17.20;99.90;;;;;;4999856;28;20492;-83
2022/06/26 03:17:34;;;;;;;35.97;15.77;;;17.10;99.90;;;;;;5007081;28;20061;-83
2022/06/26 03:20:00;;;;;;;33.67;16.27;;;17.00;99.90;;;;;;5038418;28;20054;-82
2022/06/26 03:22:26;;;;;;;38.77;16.77;;;17.00;99.90;;;;;;5029116;28;20131;-83
2022/06/26 03:24:51;;;;;;;30.17;15.60;;;17.00;99.90;;;;;;5015053;28;20061;-80
2022/06/26 03:27:17;;;;;;;37.57;16.53;;;16.90;99.90;;;;;;5014698;28;20042;-86
2022/06/26 03:29:43;;;;;;;34.73;15.63;;;16.90;99.90;;;;;;4998938;28;20050;-80
2022/06/26 03:32:09;;;;;;;29.63;14.50;;;16.90;99.90;;;;;;5018084;28;20057;-82
2022/06/26 03:34:34;;;;;;;34.33;14.73;;;16.80;99.90;;;;;;5003404;28;20450;-83
2022/06/26 03:37:00;;;;;;;31.60;14.23;;;16.80;99.90;;;;;;5016884;28;20057;-83
2022/06/26 03:39:26;;;;;;;31.30;13.70;;;16.80;99.90;;;;;;5013080;28;20075;-83
2022/06/26 03:42:00;;;;;;;29.20;13.63;;;16.70;99.90;;;;;;5015333;28;20996;-82
2022/06/26 03:44:26;;;;;;;26.90;12.82;;;16.70;99.90;;;;;;5001401;28;20080;-83
2022/06/26 03:46:52;;;;;;;27.67;12.48;;;16.60;99.90;;;;;;5010190;28;20101;-80
2022/06/26 03:49:17;;;;;;;23.90;11.07;;;16.60;99.90;;;;;;5016825;28;20049;-81
2022/06/26 03:51:43;;;;;;;31.17;12.30;;;16.60;99.90;;;;;;5033861;28;20041;-83
2022/06/26 03:54:09;;;;;;;22.40;10.50;;;16.60;99.90;;;;;;5033753;28;20045;-84
2022/06/26 03:56:34;;;;;;;23.97;11.10;;;16.50;99.90;;;;;;5038545;28;20065;-79
2022/06/26 03:59:00;;;;;;;18.17;9.23;;;16.50;99.90;;;;;;5034020;28;20051;-82
2022/06/26 04:01:26;;;;;;;21.07;9.87;;;16.50;99.90;;;;;;5012052;28;20057;-81
2022/06/26 04:03:51;;;;;;;23.13;10.27;;;16.50;99.90;;;;;;5017593;28;20458;-82
2022/06/26 04:06:17;;;;;;;23.20;10.20;;;16.50;99.90;;;;;;5017453;28;20089;-82
2022/06/26 04:08:43;;;;;;;27.60;11.30;;;16.50;99.90;;;;;;5018149;28;20050;-82
2022/06/26 04:11:08;;;;;;;19.37;10.00;;;16.50;99.90;;;;;;5024192;28;20453;-81
2022/06/26 04:13:34;;;;;;;25.88;10.18;;;16.70;99.90;;;;;;5018616;28;20065;-81
2022/06/26 04:16:00;;;;;;;18.07;9.17;;;16.60;99.90;;;;;;5021550;28;20489;-80
2022/06/26 04:18:26;;;;;;;19.70;9.07;;;16.70;99.90;;;;;;4981759;28;20046;-82
2022/06/26 04:20:52;;;;;;;17.63;8.63;;;16.70;99.90;;;;;;5014768;28;20213;-80
2022/06/26 04:23:17;;;;;;;17.23;8.60;;;16.70;99.90;;;;;;5013460;28;20097;-80
2022/06/26 04:25:43;;;;;;;16.83;8.50;;;16.70;99.90;;;;;;5021395;28;20111;-81
2022/06/26 04:28:09;;;;;;;17.60;8.77;;;16.80;99.90;;;;;;5035735;28;20389;-82
2022/06/26 04:30:35;;;;;;;15.23;8.32;;;16.80;99.90;;;;;;5022535;28;20050;-84
2022/06/26 04:33:01;;;;;;;17.50;9.23;;;16.70;99.90;;;;;;5012257;28;20046;-79
2022/06/26 04:35:27;;;;;;;16.40;8.05;;;16.70;99.90;;;;;;5011860;28;20300;-79
2022/06/26 04:37:53;;;;;;;15.98;7.88;;;16.70;99.90;;;;;;5013208;28;20084;-84
2022/06/26 04:40:18;;;;;;;15.53;7.67;;;16.80;99.90;;;;;;5012427;28;20851;-82
2022/06/26 04:42:45;;;;;;;15.93;7.43;;;16.80;99.90;;;;;;5013385;28;20525;-81
2022/06/26 04:45:11;;;;;;;15.57;7.90;;;16.80;99.90;;;;;;5021645;28;20050;-81
2022/06/26 04:47:37;;;;;;;15.40;8.43;;;16.90;99.90;;;;;;4996584;28;20186;-83
2022/06/26 04:50:03;;;;;;;17.63;8.33;;;17.00;99.90;;;;;;5017224;28;20049;-81
2022/06/26 04:52:29;;;;;;;19.77;8.23;;;17.10;99.90;;;;;;5019323;28;20375;-84
2022/06/26 04:54:55;;;;;;;15.57;7.57;;;17.20;99.90;;;;;;5019553;28;20508;-81
2022/06/26 04:57:20;;;;;;;14.07;7.70;;;17.40;99.90;;;;;;5000707;28;20143;-83
2022/06/26 04:59:46;;;;;;;14.97;7.33;;;17.50;99.90;;;;;;5014997;28;20398;-83
2022/06/26 05:02:12;;;;;;;16.17;7.75;;;17.70;99.90;;;;;;5028551;28;20136;-84
2022/06/26 05:04:38;;;;;;;16.77;8.30;;;17.80;99.90;;;;;;5014654;28;20050;-81
2022/06/26 05:07:04;;;;;;;16.13;7.60;;;17.80;99.90;;;;;;5013540;28;20505;-76
2022/06/26 05:09:31;;;;;;;13.90;7.55;;;18.00;99.90;;;;;;5030730;28;20103;-79
2022/06/26 05:11:57;;;;;;;18.00;8.25;;;18.10;99.90;;;;;;5028442;28;20037;-80
2022/06/26 05:14:23;;;;;;;14.63;8.13;;;18.10;99.90;;;;;;5020296;28;20061;-79
2022/06/26 05:16:49;;;;;;;15.47;8.00;;;18.20;99.90;;;;;;5022849;28;20089;-80
2022/06/26 05:19:16;;;;;;;13.63;7.70;;;18.20;99.90;;;;;;5012977;28;20065;-79
2022/06/26 05:21:41;;;;;;;15.50;8.25;;;18.10;99.90;;;;;;5023826;28;20046;-78
2022/06/26 05:24:07;;;;;;;17.77;8.37;;;18.10;99.90;;;;;;4986186;28;20064;-77
2022/06/26 05:26:34;;;;;;;18.60;9.10;;;18.10;99.90;;;;;;5013845;28;20046;-77
2022/06/26 05:29:00;;;;;;;23.30;9.88;;;18.00;99.90;;;;;;5022860;28;20128;-81
2022/06/26 05:31:26;;;;;;;21.50;10.65;;;18.00;99.90;;;;;;5014289;28;20037;-79
2022/06/26 05:33:52;;;;;;;27.23;11.63;;;18.00;99.90;;;;;;5020009;28;20034;-78
2022/06/26 05:36:17;;;;;;;22.70;11.47;;;17.90;99.90;;;;;;5004228;28;20049;-79
2022/06/26 05:38:43;;;;;;;27.23;12.47;;;17.90;99.90;;;;;;5017074;28;20053;-79
2022/06/26 05:41:09;;;;;;;26.00;12.87;;;17.90;99.90;;;;;;5021558;28;20038;-75
2022/06/26 05:43:34;;;;;;;30.47;13.87;;;17.90;99.90;;;;;;4993364;28;20159;-80
2022/06/26 05:46:01;;;;;;;30.97;14.87;;;17.90;99.90;;;;;;5011697;28;20387;-79
2022/06/26 05:48:27;;;;;;;31.25;14.55;;;17.80;99.90;;;;;;5008723;28;20037;-79
2022/06/26 05:50:53;;;;;;;32.50;15.43;;;17.80;99.90;;;;;;4993500;28;20065;-77
2022/06/26 05:53:20;;;;;;;32.08;16.65;;;17.80;99.90;;;;;;5008685;28;20168;-77
2022/06/26 05:55:46;;;;;;;34.35;16.17;;;17.80;99.90;;;;;;5010695;28;20436;-79
2022/06/26 05:58:12;;;;;;;32.27;16.50;;;17.80;99.90;;;;;;5008582;28;20038;-75
2022/06/26 06:00:38;;;;;;;36.83;18.10;;;17.80;99.90;;;;;;5009365;28;20482;-75
2022/06/26 06:03:05;;;;;;;34.90;17.83;;;17.90;99.90;;;;;;5009215;28;20616;-77
2022/06/26 06:05:31;;;;;;;;;;;18.00;99.90;;;;;;5009411;28;20045;-79
2022/06/26 06:07:57;;;;;;;39.08;19.88;;;18.10;99.90;;;;;;5008333;28;19921;-80
2022/06/26 06:10:24;;;;;;;39.73;18.77;;;18.20;99.90;;;;;;5010706;28;20046;-77
2022/06/26 06:12:51;;;;;;;43.60;20.58;;;18.30;99.90;;;;;;5007105;28;20061;-78
2022/06/26 06:15:17;;;;;;;47.10;21.60;;;18.30;99.90;;;;;;5009769;28;20058;-78
2022/06/26 06:17:44;;;;;;;38.17;20.08;;;18.30;99.90;;;;;;5009720;28;20058;-79
2022/06/26 06:20:13;;;;;;;42.53;20.52;;;18.40;99.90;;;;;;5007807;28;20061;-79
2022/06/26 06:22:44;;;;;;;40.38;19.77;;;18.50;99.90;;;;;;5008682;28;20042;-78
2022/06/26 06:25:10;;;;;;;42.72;20.80;;;18.60;99.90;;;;;;5006915;28;20149;-80
2022/06/26 06:27:37;;;;;;;41.83;20.60;;;18.70;99.90;;;;;;5008474;28;20054;-77
2022/06/26 06:30:05;;;;;;;45.72;21.42;;;18.70;99.90;;;;;;5023332;28;20164;-78
2022/06/26 06:32:37;;;;;;;43.33;21.02;;;18.60;99.90;;;;;;5006820;28;20054;-81
2022/06/26 06:35:03;;;;;;;41.20;22.03;;;18.70;99.90;;;;;;5002082;28;20048;-81
2022/06/26 06:37:29;;;;;;;42.33;21.67;;;18.80;99.90;;;;;;5006754;28;20300;-79
2022/06/26 06:39:55;;;;;;;42.00;21.40;;;18.80;99.90;;;;;;5008902;28;20092;-79
2022/06/26 06:42:20;;;;;;;44.53;22.43;;;18.80;99.90;;;;;;5007215;28;20140;-82
2022/06/26 06:44:46;;;;;;;45.57;21.77;;;18.80;99.90;;;;;;5022978;28;20046;-80
2022/06/26 06:47:12;;;;;;;45.17;23.47;;;18.80;99.90;;;;;;5017756;28;20034;-79
2022/06/26 06:49:38;;;;;;;46.27;23.03;;;18.90;99.90;;;;;;5028551;28;20477;-83
2022/06/26 06:52:05;;;;;;;44.20;22.45;;;18.90;99.90;;;;;;5008483;28;20088;-78
2022/06/26 06:54:31;;;;;;;51.70;21.85;;;19.00;99.90;;;;;;5009857;28;20153;-82
2022/06/26 06:56:57;;;;;;;43.42;20.83;;;19.10;99.90;;;;;;5007599;28;20046;-80
2022/06/26 06:59:23;;;;;;;48.67;23.03;;;19.10;99.90;;;;;;5006954;28;20627;-81
2022/06/26 07:01:49;;;;;;;48.43;21.40;;;19.00;99.90;;;;;;5009642;28;20103;-81
2022/06/26 07:04:15;;;;;;;48.35;24.40;;;18.90;99.90;;;;;;5012376;28;20107;-77
2022/06/26 07:06:41;;;;;;;51.57;24.77;;;18.90;99.90;;;;;;5017790;28;20049;-81
2022/06/26 07:09:07;;;;;;;49.67;24.80;;;18.80;99.90;;;;;;5017278;28;20046;-82
2022/06/26 07:11:33;;;;;;;51.10;24.47;;;18.80;99.90;;;;;;5012242;28;20369;-77
2022/06/26 07:13:59;;;;;;;52.13;24.47;;;18.80;99.90;;;;;;5007273;28;20057;-83
2022/06/26 07:16:25;;;;;;;47.83;24.63;;;18.80;99.90;;;;;;5007386;28;20112;-81
2022/06/26 07:18:51;;;;;;;48.90;24.23;;;18.80;99.90;;;;;;5005464;28;20504;-84
2022/06/26 07:21:17;;;;;;;51.50;26.20;;;18.70;99.90;;;;;;5006646;28;20044;-79
2022/06/26 07:23:43;;;;;;;59.33;24.90;;;18.70;99.90;;;;;;5008462;28;20212;-83
2022/06/26 07:26:09;;;;;;;53.37;25.70;;;18.80;99.90;;;;;;5015091;28;20068;-82
2022/06/26 07:28:35;;;;;;;60.17;25.77;;;18.90;99.90;;;;;;5013518;28;20041;-85
2022/06/26 07:31:00;;;;;;;48.83;25.27;;;18.90;99.90;;;;;;5009756;28;20049;-84
2022/06/26 07:36:10;;;;;;;54.70;26.02;;;18.90;99.90;;;;;;5014282;28;20056;-83
2022/06/26 07:38:36;;;;;;;51.57;26.10;;;18.90;99.90;;;;;;5013926;28;20406;-82
2022/06/26 07:41:02;;;;;;;54.97;26.50;;;19.00;99.90;;;;;;5018758;28;20473;-82
2022/06/26 07:43:27;;;;;;;49.47;24.73;;;19.30;99.90;;;;;;5033472;28;20092;-83
2022/06/26 07:45:54;;;;;;;46.53;22.73;;;19.50;99.90;;;;;;5030269;28;20409;-85
2022/06/26 07:48:19;;;;;;;39.60;19.60;;;19.60;99.90;;;;;;4999900;28;20233;-82
2022/06/26 07:50:46;;;;;;;45.83;21.57;;;19.50;99.90;;;;;;5012649;28;20070;-83
2022/06/26 07:53:12;;;;;;;45.05;21.65;;;19.60;99.90;;;;;;4997353;28;20141;-82
2022/06/26 07:55:38;;;;;;;38.67;21.43;;;19.70;99.90;;;;;;5012006;28;20108;-82
2022/06/26 07:58:03;;;;;;;41.33;21.10;;;19.80;99.90;;;;;;5009417;28;20068;-78
2022/06/26 08:00:29;;;;;;;36.50;19.63;;;20.00;99.90;;;;;;5009099;28;20060;-81
2022/06/26 08:02:55;;;;;;;42.20;21.53;;;20.10;99.90;;;;;;5014408;28;20085;-80
2022/06/26 08:05:21;;;;;;;41.13;20.80;;;20.20;99.90;;;;;;5006882;28;20038;-83
2022/06/26 08:07:46;;;;;;;35.67;18.17;;;20.10;99.90;;;;;;5009316;28;20113;-81
2022/06/26 08:10:12;;;;;;;39.80;17.87;;;20.00;99.90;;;;;;5008935;28;20072;-82
2022/06/26 08:12:38;;;;;;;41.30;19.93;;;20.10;99.90;;;;;;5009819;28;20058;-82
2022/06/26 08:15:05;;;;;;;37.73;17.87;;;20.20;99.90;;;;;;5011010;28;20046;-80
2022/06/26 08:17:30;;;;;;;31.50;17.48;;;20.30;99.90;;;;;;4992638;28;20120;-84
2022/06/26 08:19:56;;;;;;;28.63;15.47;;;20.40;99.90;;;;;;5008968;28;20042;-82
2022/06/26 08:22:22;;;;;;;30.17;16.87;;;20.30;99.90;;;;;;5011318;28;20046;-83
2022/06/26 08:24:48;;;;;;;25.60;14.43;;;20.30;99.90;;;;;;5010541;28;22089;-83
2022/06/26 08:27:14;;;;;;;26.80;13.60;;;20.40;99.90;;;;;;4994014;28;20042;-80
2022/06/26 08:29:40;;;;;;;23.90;11.70;;;20.60;99.90;;;;;;5014173;28;20153;-86
2022/06/26 08:32:06;;;;;;;21.73;11.38;;;20.80;99.90;;;;;;4993643;28;20100;-84
2022/06/26 08:34:32;;;;;;;21.50;11.45;;;21.20;99.90;;;;;;5018852;28;20052;-81
2022/06/26 08:36:58;;;;;;;25.07;11.53;;;21.40;99.90;;;;;;5015389;28;20038;-82
2022/06/26 08:39:24;;;;;;;22.07;12.13;;;21.40;99.90;;;;;;5015533;28;20355;-82
2022/06/26 08:41:54;;;;;;;21.27;11.43;;;21.50;99.90;;;;;;5012279;28;20054;-81
2022/06/26 08:44:21;;;;;;;19.08;8.90;;;21.60;99.90;;;;;;5013390;28;20038;-83
2022/06/26 08:46:47;;;;;;;21.08;10.77;;;21.50;99.90;;;;;;5007708;28;20128;-81
2022/06/26 08:49:15;;;;;;;20.30;10.40;;;21.20;99.90;;;;;;5013346;28;20061;-84
2022/06/26 08:51:43;;;;;;;22.95;11.30;;;21.10;99.90;;;;;;5002495;28;20100;-82
2022/06/26 08:54:10;;;;;;;24.25;11.00;;;20.80;99.90;;;;;;5018041;28;20992;-83
2022/06/26 08:56:41;;;;;;;23.20;11.93;;;20.70;99.90;;;;;;5012622;28;20320;-79
2022/06/26 08:59:08;;;;;;;26.77;11.63;;;20.70;99.90;;;;;;5004064;28;20058;-80
2022/06/26 09:01:35;;;;;;;;;;;20.60;99.90;;;;;;5022823;28;20093;-78
2022/06/26 09:04:01;;;;;;;24.27;11.93;;;20.60;99.90;;;;;;5019409;28;20029;-80
2022/06/26 09:06:27;;;;;;;24.63;12.50;;;20.70;99.90;;;;;;5017660;28;20074;-80
2022/06/26 09:08:52;;;;;;;20.03;10.50;;;20.90;99.90;;;;;;4997804;28;20057;-82
2022/06/26 09:11:19;;;;;;;22.77;10.87;;;21.10;99.90;;;;;;5018023;28;20072;-78
2022/06/26 09:13:46;;;;;;;19.63;9.50;;;21.20;99.90;;;;;;4991966;28;20933;-78
2022/06/26 09:16:14;;;;;;;19.35;9.55;;;21.30;99.90;;;;;;5010490;28;20073;-82
2022/06/26 09:18:41;;;;;;;18.75;9.00;;;21.50;99.90;;;;;;4981788;28;20053;-81
2022/06/26 09:21:08;;;;;;;17.70;9.27;;;21.70;99.90;;;;;;5020895;28;20038;-80
2022/06/26 09:23:36;;;;;;;19.05;9.13;;;21.80;99.90;;;;;;5002611;28;20374;-85
2022/06/26 09:26:03;;;;;;;21.42;8.95;;;21.70;99.90;;;;;;5018229;28;20398;-82
2022/06/26 09:28:30;;;;;;;;;;;21.80;99.90;;;;;;5019576;28;20053;-81
2022/06/26 09:30:57;;;;;;;13.32;6.35;;;21.90;99.90;;;;;;4988069;28;19921;-83
2022/06/26 09:33:25;;;;;;;17.23;6.07;;;22.10;99.90;;;;;;5018520;28;20401;-85
2022/06/26 09:35:52;;;;;;;12.52;6.00;;;22.30;99.90;;;;;;5018326;28;20057;-81
2022/06/26 09:38:22;;;;;;;14.10;4.97;;;22.60;99.90;;;;;;5017207;28;20117;-82
2022/06/26 09:40:50;;;;;;;11.38;5.20;;;22.70;99.90;;;;;;5032875;28;20432;-83
2022/06/26 09:43:43;;;;;;;13.82;5.57;;;22.90;99.90;;;;;;5019516;28;20046;-81
2022/06/26 09:46:12;;;;;;;12.50;6.47;;;23.00;99.90;;;;;;5021536;28;20348;-80
2022/06/26 09:48:38;;;;;;;16.38;7.60;;;23.00;99.90;;;;;;5021331;28;20046;-83
2022/06/26 09:51:08;;;;;;;15.43;6.30;;;23.10;99.90;;;;;;5017000;28;20050;-81
2022/06/26 09:53:35;;;;;;;13.27;6.25;;;22.70;99.90;;;;;;5032200;28;20103;-80
2022/06/26 09:56:01;;;;;;;;;;;22.40;99.90;;;;;;5039561;28;20067;-83
2022/06/26 09:58:28;;;;;;;12.93;5.35;;;22.60;99.90;;;;;;5039738;28;19921;-81
2022/06/26 10:06:28;;;;;;;12.77;6.10;;;23.40;99.90;;;;;;5051097;28;20136;-84
2022/06/26 10:08:58;;;;;;;14.40;6.45;;;23.70;99.90;;;;;;5026183;28;20053;-81
2022/06/26 10:11:27;;;;;;;14.57;6.32;;;23.80;99.90;;;;;;5044115;28;20113;-79
2022/06/26 10:14:00;;;;;;;12.80;5.95;;;23.90;99.90;;;;;;5026095;28;20395;-80
2022/06/26 10:16:44;;;;;;;13.32;6.60;;;23.90;99.90;;;;;;5007580;28;20142;-83
2022/06/26 10:19:42;;;;;;;14.05;6.40;;;23.70;99.90;;;;;;5015307;28;20042;-78
2022/06/26 10:22:08;;;;;;;13.30;5.63;;;23.50;99.90;;;;;;5026860;28;20053;-82
2022/06/26 10:24:34;;;;;;;14.20;5.80;;;23.30;99.90;;;;;;5024717;28;20117;-82
2022/06/26 10:27:02;;;;;;;13.73;5.43;;;23.30;99.90;;;;;;5057606;28;20072;-81
2022/06/26 10:29:38;;;;;;;13.15;6.18;;;23.40;99.90;;;;;;5042188;28;20105;-81
2022/06/26 10:32:07;;;;;;;15.10;6.45;;;23.00;98.80;;;;;;5047055;28;20050;-79
2022/06/26 10:34:33;;;;;;;12.85;6.38;;;23.10;99.90;;;;;;5044070;28;20049;-81
2022/06/26 10:37:18;;;;;;;16.52;5.50;;;23.00;99.90;;;;;;5041203;28;20107;-86
2022/06/26 10:39:49;;;;;;;15.88;5.53;;;23.10;99.90;;;;;;5045561;28;20041;-80
2022/06/26 10:45:14;;;;;;;11.63;5.63;;;23.30;99.90;;;;;;5034111;28;20094;-83
2022/06/26 10:47:41;;;;;;;13.52;4.70;;;23.10;98.90;;;;;;5004351;28;20466;-83
2022/06/26 10:50:21;;;;;;;12.40;5.10;;;23.30;99.90;;;;;;5005890;28;20125;-84
2022/06/26 10:52:47;;;;;;;12.77;5.10;;;23.40;99.40;;;;;;4990294;28;20049;-79
2022/06/26 10:55:12;;;;;;;12.80;5.20;;;23.40;99.60;;;;;;5047130;28;20062;-82
2022/06/26 10:57:38;;;;;;;17.00;5.83;;;23.40;99.30;;;;;;5036333;28;20093;-80
2022/06/26 11:00:12;;;;;;;12.70;5.75;;;23.70;99.30;;;;;;5038350;28;20052;-80
2022/06/26 11:02:41;;;;;;;13.40;5.57;;;24.00;99.20;;;;;;5038176;28;20045;-81
2022/06/26 11:05:08;;;;;;;13.52;6.40;;;24.10;99.10;;;;;;5022450;28;20123;-81
2022/06/26 11:08:00;;;;;;;12.65;5.90;;;24.20;98.40;;;;;;5017346;28;20054;-81
2022/06/26 11:10:28;;;;;;;13.10;5.20;;;23.90;96.60;;;;;;5020103;28;20062;-79
2022/06/26 11:12:54;;;;;;;13.77;5.72;;;23.70;98.00;;;;;;5016354;28;20057;-80
2022/06/26 11:15:31;;;;;;;15.48;6.20;;;23.80;96.80;;;;;;5019008;28;20060;-80
2022/06/26 11:18:03;;;;;;;12.63;5.93;;;23.80;97.50;;;;;;5022494;28;20050;-80
2022/06/26 11:20:47;;;;;;;13.88;6.00;;;23.40;96.10;;;;;;5037661;28;20041;-80
2022/06/26 11:23:27;;;;;;;13.90;5.20;;;23.70;96.70;;;;;;5017611;28;20049;-81
2022/06/26 11:25:56;;;;;;;14.55;6.50;;;23.80;97.70;;;;;;5035191;28;20049;-79
2022/06/26 11:28:43;;;;;;;17.77;7.05;;;24.20;97.50;;;;;;5037284;28;20097;-80
2022/06/26 11:31:11;;;;;;;13.15;6.30;;;24.50;95.50;;;;;;5040439;28;20053;-75
2022/06/26 11:33:39;;;;;;;19.08;6.32;;;24.50;94.40;;;;;;5043987;28;20111;-80
2022/06/26 11:36:08;;;;;;;12.70;5.63;;;24.40;95.60;;;;;;5039473;28;20618;-77
2022/06/26 11:38:35;;;;;;;12.30;5.40;;;24.60;95.40;;;;;;5023081;28;20042;-79
2022/06/26 11:41:04;;;;;;;14.00;6.05;;;24.40;95.80;;;;;;5019359;28;20057;-82
2022/06/26 11:43:30;;;;;;;15.52;6.88;;;24.40;95.80;;;;;;5026360;28;20091;-79
2022/06/26 11:45:57;;;;;;;19.52;6.70;;;24.60;95.10;;;;;;5006848;28;20148;-77
2022/06/26 11:48:23;;;;;;;13.82;6.35;;;24.60;95.30;;;;;;5017117;28;20050;-79
2022/06/26 11:50:54;;;;;;;13.98;6.68;;;24.30;95.40;;;;;;4998844;28;20050;-81
2022/06/26 11:53:24;;;;;;;13.10;6.90;;;24.60;95.60;;;;;;4982663;28;20505;-78
2022/06/26 11:55:53;;;;;;;15.13;7.15;;;24.20;94.30;;;;;;5015071;28;20068;-78
2022/06/26 11:58:24;;;;;;;13.70;6.18;;;24.30;94.80;;;;;;5023064;28;20128;-81
2022/06/26 12:01:01;;;;;;;12.90;7.05;;;24.20;95.30;;;;;;5025348;28;20077;-79
2022/06/26 12:03:28;;;;;;;15.43;7.10;;;24.20;94.80;;;;;;5027361;28;20529;-81
2022/06/26 12:05:54;;;;;;;15.48;7.38;;;24.50;94.40;;;;;;5036443;28;20052;-81
2022/06/26 12:08:20;;;;;;;15.97;6.80;;;24.60;94.60;;;;;;5037404;28;20050;-81
2022/06/26 12:10:50;;;;;;;11.23;6.75;;;24.70;94.10;;;;;;5035583;28;20343;-79
2022/06/26 12:13:30;;;;;;;16.48;7.22;;;24.30;95.00;;;;;;5026946;28;20057;-80
2022/06/26 12:16:08;;;;;;;16.73;6.72;;;24.20;95.30;;;;;;4999961;28;20130;-81
2022/06/26 12:18:38;;;;;;;17.17;6.70;;;24.60;95.00;;;;;;5027790;28;20124;-81
2022/06/26 12:21:16;;;;;;;12.20;6.72;;;24.20;94.60;;;;;;5019750;28;20053;-80
2022/06/26 12:23:44;;;;;;;17.20;6.78;;;24.50;95.00;;;;;;5014299;28;20058;-80
2022/06/26 12:26:13;;;;;;;14.68;6.13;;;24.40;95.40;;;;;;5027144;28;20492;-80
2022/06/26 12:28:50;;;;;;;14.40;5.78;;;24.60;94.90;;;;;;5014164;28;20050;-81
2022/06/26 12:31:17;;;;;;;11.70;5.80;;;24.20;94.60;;;;;;5014044;28;20093;-79
2022/06/26 12:33:44;;;;;;;11.50;5.80;;;24.30;94.80;;;;;;5014998;28;20050;-80
2022/06/26 12:36:10;;;;;;;11.85;5.95;;;24.00;95.00;;;;;;5020594;28;20132;-81
2022/06/26 12:38:37;;;;;;;13.53;5.40;;;23.90;94.00;;;;;;5017787;28;20102;-77
2022/06/26 12:41:05;;;;;;;12.73;5.65;;;23.90;94.60;;;;;;4999617;28;20092;-81
2022/06/26 12:43:33;;;;;;;9.40;5.22;;;24.10;94.50;;;;;;5015812;28;20183;-79
2022/06/26 12:45:59;;;;;;;15.55;6.15;;;24.20;94.20;;;;;;5012797;28;20049;-80
2022/06/26 12:48:24;;;;;;;13.87;5.63;;;24.20;93.90;;;;;;5027567;28;20382;-80
2022/06/26 12:50:57;;;;;;;10.15;5.32;;;23.50;94.30;;;;;;5000098;28;20069;-79